Time;durP1;ratioP1;P1;durP2;ratioP2;P2;SDS_P1;SDS_P2;PMS_P1;PMS_P2;Temp;Humidity;BMP_temperature;BMP_pressure;BME280_temperature;BME280_humidity;BME280_pressure;Samples;Min_cycle;Max_cycle;Signal;HPM_P1;HPM_P2
2022/05/03 00:02:07;;;;;;;7.70;6.68;;;;;12.10;96129.00;;;;8346584;28;20234;-72
2022/05/03 00:06:23;;;;;;;10.38;6.38;;;;;12.00;96117.00;;;;8340559;28;20248;-77
2022/05/03 00:10:37;;;;;;;9.02;6.65;;;;;12.00;96125.00;;;;8360040;28;20216;-73
2022/05/03 00:14:45;;;;;;;8.25;6.20;;;;;11.90;96119.00;;;;8345097;28;20225;-75
2022/05/03 00:18:49;;;;;;;12.30;7.55;;;;;11.90;96120.00;;;;8338508;28;20703;-75
2022/05/03 00:22:52;;;;;;;7.47;6.53;;;;;11.80;96114.00;;;;8331973;28;20221;-72
2022/05/03 00:26:56;;;;;;;10.27;7.30;;;;;11.80;96110.00;;;;8360793;28;20640;-78
2022/05/03 00:31:03;;;;;;;9.98;7.75;;;;;11.70;96114.00;;;;8343978;28;20237;-75
2022/05/03 00:35:08;;;;;;;9.35;7.13;;;;;11.60;96110.00;;;;8343868;28;20232;-72
2022/05/03 00:39:11;;;;;;;8.95;7.25;;;;;11.40;96118.00;;;;8368608;28;20269;-77
2022/05/03 00:43:23;;;;;;;10.02;7.50;;;;;11.20;96107.00;;;;8370975;28;20215;-73
2022/05/03 00:47:37;;;;;;;11.52;7.60;;;;;11.00;96111.00;;;;8374337;28;21029;-73
2022/05/03 00:51:46;;;;;;;11.23;7.82;;;;;10.80;96108.00;;;;8375390;28;20231;-74
2022/05/03 00:56:19;;;;;;;10.47;8.07;;;;;10.60;96101.00;;;;8378881;28;20232;-76
2022/05/03 01:00:25;;;;;;;10.35;7.72;;;;;10.40;96098.00;;;;8370150;28;20230;-81
2022/05/03 01:04:39;;;;;;;17.43;8.60;;;;;10.20;96098.00;;;;8364702;28;20238;-73
2022/05/03 01:08:51;;;;;;;14.63;9.00;;;;;10.10;96096.00;;;;8360003;28;20308;-73
2022/05/03 01:12:58;;;;;;;14.60;9.93;;;;;10.10;96094.00;;;;8359055;28;20319;-71
2022/05/03 01:17:05;;;;;;;14.67;9.50;;;;;10.20;96097.00;;;;8379553;28;20223;-75
2022/05/03 01:21:14;;;;;;;13.27;9.17;;;;;10.30;96093.00;;;;8350012;28;20252;-71
2022/05/03 01:25:37;;;;;;;14.70;8.50;;;;;10.30;96094.00;;;;8353931;28;20316;-70
2022/05/03 01:29:45;;;;;;;12.00;8.70;;;;;10.20;96087.00;;;;8339162;28;20231;-75
2022/05/03 01:33:50;;;;;;;12.43;9.00;;;;;10.20;96088.00;;;;8336033;28;20652;-74
2022/05/03 01:38:06;;;;;;;11.37;8.60;;;;;10.10;96078.00;;;;8335173;28;20823;-77
2022/05/03 01:42:11;;;;;;;11.73;8.67;;;;;10.10;96084.00;;;;8352872;28;20732;-71
2022/05/03 01:46:21;;;;;;;14.50;8.73;;;;;10.10;96099.00;;;;8341405;28;20283;-74
2022/05/03 01:50:31;;;;;;;15.53;9.47;;;;;10.00;96096.00;;;;8345249;28;20598;-74
2022/05/03 01:54:59;;;;;;;12.33;8.70;;;;;10.00;96102.00;;;;8356336;28;20213;-77
2022/05/03 01:59:16;;;;;;;13.23;8.70;;;;;9.90;96096.00;;;;8354941;28;20225;-75
2022/05/03 02:03:30;;;;;;;13.00;9.17;;;;;9.90;96098.00;;;;8352182;28;20232;-72
2022/05/03 02:07:50;;;;;;;15.27;8.40;;;;;9.80;96091.00;;;;8344649;28;20791;-75
2022/05/03 02:12:03;;;;;;;15.03;9.20;;;;;9.80;96097.00;;;;8344843;28;20315;-76
2022/05/03 02:16:10;;;;;;;13.97;9.17;;;;;9.80;96095.00;;;;8346382;28;20223;-76
2022/05/03 02:20:33;;;;;;;13.17;8.80;;;;;9.70;96092.00;;;;8371936;28;20645;-73
2022/05/03 02:24:46;;;;;;;11.83;8.27;;;;;9.70;96096.00;;;;8375734;28;20707;-74
2022/05/03 02:29:00;;;;;;;14.33;9.00;;;;;9.60;96089.00;;;;8375187;28;20231;-73
2022/05/03 02:33:07;;;;;;;14.73;9.53;;;;;9.50;96076.00;;;;8372580;28;20227;-73
2022/05/03 02:37:17;;;;;;;14.90;9.47;;;;;9.50;96072.00;;;;8374540;28;20227;-74
2022/05/03 02:41:22;;;;;;;12.40;8.40;;;;;9.40;96079.00;;;;8374983;28;20226;-72
2022/05/03 02:45:26;;;;;;;12.83;8.77;;;;;9.30;96075.00;;;;8375266;28;20751;-72
2022/05/03 02:49:40;;;;;;;15.20;9.50;;;;;9.20;96083.00;;;;8379489;28;20304;-75
2022/05/03 02:53:52;;;;;;;13.73;9.83;;;;;9.10;96074.00;;;;8378113;28;20228;-75
2022/05/03 02:58:02;;;;;;;15.23;9.03;;;;;9.00;96063.00;;;;8380972;28;20315;-73
2022/05/03 03:02:15;;;;;;;17.07;9.30;;;;;9.00;96070.00;;;;8406318;22;20232;-71
2022/05/03 03:06:22;;;;;;;18.83;11.13;;;;;9.00;96070.00;;;;8367946;28;20625;-75
2022/05/03 03:10:32;;;;;;;16.20;10.20;;;;;9.00;96065.00;;;;8375389;28;20232;-74
2022/05/03 03:14:43;;;;;;;20.47;9.43;;;;;9.00;96063.00;;;;8378656;28;20830;-72
2022/05/03 03:18:48;;;;;;;16.87;10.10;;;;;9.00;96073.00;;;;8381550;28;20230;-77
2022/05/03 03:22:51;;;;;;;16.90;10.13;;;;;9.00;96072.00;;;;8390805;28;20314;-74
2022/05/03 03:26:57;;;;;;;14.40;9.40;;;;;9.00;96069.00;;;;8384213;28;20232;-74
2022/05/03 03:31:02;;;;;;;15.63;10.03;;;;;9.00;96064.00;;;;8380925;28;20550;-73
2022/05/03 03:35:06;;;;;;;15.37;9.97;;;;;9.00;96062.00;;;;8388656;28;20763;-72
2022/05/03 03:39:10;;;;;;;18.50;10.70;;;;;9.10;96062.00;;;;8373696;28;20223;-79
2022/05/03 03:43:15;;;;;;;17.80;10.77;;;;;9.20;96063.00;;;;8366578;28;20247;-73
2022/05/03 03:47:18;;;;;;;16.13;10.60;;;;;9.40;96057.00;;;;8384808;28;20389;-74
2022/05/03 03:51:22;;;;;;;15.80;9.63;;;;;9.40;96061.00;;;;8396927;28;20306;-73
2022/05/03 03:55:27;;;;;;;17.47;10.50;;;;;9.40;96057.00;;;;8371047;28;20234;-71
2022/05/03 03:59:33;;;;;;;15.60;9.90;;;;;9.50;96069.00;;;;8380904;28;20315;-73
2022/05/03 04:03:38;;;;;;;17.57;10.90;;;;;9.60;96071.00;;;;8377490;28;20236;-79
2022/05/03 04:07:41;;;;;;;17.63;11.53;;;;;9.80;96068.00;;;;8375298;28;20322;-74
2022/05/03 04:11:45;;;;;;;16.23;10.40;;;;;9.80;96069.00;;;;8362705;28;20224;-73
2022/05/03 04:15:51;;;;;;;13.73;9.57;;;;;9.80;96078.00;;;;8385520;28;20223;-78
2022/05/03 04:19:55;;;;;;;14.43;9.30;;;;;9.80;96081.00;;;;8370021;28;20224;-75
2022/05/03 04:23:58;;;;;;;16.23;9.67;;;;;9.90;96085.00;;;;8376488;28;20303;-73
2022/05/03 04:28:01;;;;;;;13.30;9.87;;;;;10.00;96092.00;;;;8376196;28;20794;-75
2022/05/03 04:32:06;;;;;;;14.87;9.83;;;;;10.10;96082.00;;;;8387195;28;20242;-75
2022/05/03 04:36:09;;;;;;;14.50;9.70;;;;;10.20;96085.00;;;;8379877;28;20224;-73
2022/05/03 04:40:13;;;;;;;15.07;9.70;;;;;10.30;96083.00;;;;8366067;28;20726;-73
2022/05/03 04:44:20;;;;;;;14.00;9.97;;;;;10.40;96086.00;;;;8366560;28;20240;-73
2022/05/03 04:48:25;;;;;;;14.83;9.63;;;;;10.50;96084.00;;;;8365306;28;20250;-73
2022/05/03 04:52:29;;;;;;;17.63;9.60;;;;;10.60;96086.00;;;;8375105;28;20240;-73
2022/05/03 04:56:32;;;;;;;15.57;9.93;;;;;10.70;96090.00;;;;8379008;28;20637;-74
2022/05/03 05:00:35;;;;;;;12.47;9.93;;;;;10.80;96101.00;;;;8375730;28;20224;-74
2022/05/03 05:04:40;;;;;;;15.67;11.27;;;;;11.00;96098.00;;;;8371107;28;20262;-72
2022/05/03 05:08:44;;;;;;;16.57;10.80;;;;;11.20;96102.00;;;;8374733;28;20941;-73
2022/05/03 05:12:47;;;;;;;15.40;10.27;;;;;11.50;96097.00;;;;8377053;28;20302;-72
2022/05/03 05:16:50;;;;;;;12.60;9.60;;;;;11.80;96100.00;;;;8373018;28;21824;-74
2022/05/03 05:20:55;;;;;;;11.95;9.20;;;;;12.00;96105.00;;;;8387017;28;20912;-71
2022/05/03 05:25:02;;;;;;;14.65;10.25;;;;;12.20;96101.00;;;;8382508;28;20315;-72
2022/05/03 05:29:06;;;;;;;10.65;8.50;;;;;12.40;96103.00;;;;8377025;28;20292;-70
2022/05/03 05:33:09;;;;;;;14.43;9.35;;;;;12.60;96105.00;;;;8378370;28;20231;-72
2022/05/03 05:37:14;;;;;;;11.93;9.38;;;;;12.80;96097.00;;;;8380766;28;20231;-72
2022/05/03 05:41:18;;;;;;;10.85;8.45;;;;;13.10;96101.00;;;;8376210;28;20775;-71
2022/05/03 05:45:21;;;;;;;9.93;8.10;;;;;13.30;96108.00;;;;8367969;28;20257;-72
2022/05/03 05:49:24;;;;;;;10.52;8.05;;;;;13.60;96110.00;;;;8387193;28;20235;-71
2022/05/03 05:53:35;;;;;;;9.05;7.45;;;;;14.00;96113.00;;;;8382563;28;20234;-73
2022/05/03 05:57:38;;;;;;;8.45;7.22;;;;;14.30;96119.00;;;;8375643;28;20229;-74
2022/05/03 06:01:42;;;;;;;9.73;7.18;;;;;14.60;96120.00;;;;8362196;28;20679;-71
2022/05/03 06:05:45;;;;;;;8.57;7.68;;;;;15.00;96117.00;;;;8381581;28;20245;-71
2022/05/03 06:09:50;;;;;;;9.38;7.30;;;;;15.10;96119.00;;;;8376298;28;20245;-74
2022/05/03 06:13:54;;;;;;;12.10;7.75;;;;;15.10;96119.00;;;;8368528;28;20451;-72
2022/05/03 06:17:57;;;;;;;10.48;7.65;;;;;15.40;96128.00;;;;8372919;28;20230;-71
2022/05/03 06:22:01;;;;;;;12.48;6.53;;;;;15.70;96123.00;;;;8375325;28;20258;-74
2022/05/03 06:26:06;;;;;;;8.60;6.55;;;;;16.10;96128.00;;;;8376285;28;20235;-82
2022/05/03 06:30:18;;;;;;;9.65;6.75;;;;;16.40;96140.00;;;;8382333;28;20232;-71
2022/05/03 06:34:21;;;;;;;9.30;6.78;;;;;16.90;96136.00;;;;8369523;28;20691;-70
2022/05/03 06:38:24;;;;;;;6.75;5.93;;;;;17.20;96147.00;;;;8376359;28;20315;-71
2022/05/03 06:42:29;;;;;;;6.85;6.15;;;;;17.60;96141.00;;;;8380663;28;20231;-77
2022/05/03 06:46:32;;;;;;;10.07;7.25;;;;;18.20;96154.00;;;;8388943;28;20231;-75
2022/05/03 06:50:35;;;;;;;9.93;6.68;;;;;18.50;96162.00;;;;8389729;28;20261;-71
2022/05/03 06:54:39;;;;;;;8.43;6.70;;;;;18.60;96164.00;;;;8380582;28;20227;-71
2022/05/03 06:58:43;;;;;;;7.97;7.18;;;;;18.90;96163.00;;;;8364112;28;20226;-74
2022/05/03 07:02:46;;;;;;;10.13;7.38;;;;;19.20;96174.00;;;;8379226;28;20224;-72
2022/05/03 07:06:49;;;;;;;7.63;6.82;;;;;19.20;96174.00;;;;8383597;28;20298;-71
2022/05/03 07:10:53;;;;;;;8.95;7.13;;;;;19.30;96173.00;;;;8388426;28;20263;-77
2022/05/03 07:15:00;;;;;;;8.02;7.22;;;;;19.90;96168.00;;;;8372651;28;20355;-71
2022/05/03 07:23:26;;;;;;;6.22;5.63;;;;;21.10;96171.00;;;;8379087;28;20300;-69
2022/05/03 07:27:29;;;;;;;8.07;6.78;;;;;20.70;96173.00;;;;8372759;28;20238;-75
2022/05/03 07:31:34;;;;;;;7.43;6.20;;;;;20.50;96173.00;;;;8375267;28;20228;-71
2022/05/03 07:35:37;;;;;;;7.75;6.95;;;;;20.70;96174.00;;;;8377688;28;20223;-71
2022/05/03 07:39:40;;;;;;;7.88;6.82;;;;;20.40;96173.00;;;;8375046;28;20604;-72
2022/05/03 07:43:43;;;;;;;7.18;6.32;;;;;20.10;96181.00;;;;8383165;28;20224;-72
2022/05/03 07:47:48;;;;;;;7.50;6.07;;;;;20.10;96178.00;;;;8375974;28;20310;-76
2022/05/03 07:51:51;;;;;;;6.90;6.15;;;;;20.30;96184.00;;;;8372675;28;21121;-69
2022/05/03 07:55:54;;;;;;;7.60;6.10;;;;;20.50;96178.00;;;;8369178;28;20228;-70
2022/05/03 07:59:58;;;;;;;8.60;5.88;;;;;20.80;96181.00;;;;8362170;28;20235;-70
2022/05/03 08:04:02;;;;;;;6.68;6.03;;;;;21.70;96184.00;;;;8366178;28;20235;-72
2022/05/03 08:08:06;;;;;;;6.38;5.43;;;;;23.10;96180.00;;;;8372181;28;20310;-73
2022/05/03 08:12:10;;;;;;;5.55;5.05;;;;;23.60;96194.00;;;;8369846;28;20263;-75
2022/05/03 08:16:21;;;;;;;5.63;5.05;;;;;24.00;96194.00;;;;8362839;28;20266;-70
2022/05/03 08:20:26;;;;;;;8.25;5.40;;;;;24.40;96196.00;;;;8368461;28;20878;-71
2022/05/03 08:24:34;;;;;;;5.00;4.60;;;;;25.00;96193.00;;;;8367180;28;20263;-71
2022/05/03 08:28:37;;;;;;;7.40;5.03;;;;;25.40;96196.00;;;;8360243;28;20243;-72
2022/05/03 08:32:40;;;;;;;6.30;5.18;;;;;25.90;96196.00;;;;8367826;28;20319;-69
2022/05/03 08:42:01;;;;;;;7.57;5.47;;;;;26.00;96204.00;;;;8368468;28;20234;-71
2022/05/03 08:45:29;;;;;;;6.43;4.53;;;;;26.00;96205.00;;;;8373546;28;20320;-71
2022/05/03 08:49:41;;;;;;;6.00;4.75;;;;;26.20;96213.00;;;;8375652;28;20235;-70
2022/05/03 08:53:45;;;;;;;6.80;4.57;;;;;26.10;96203.00;;;;8370432;28;20617;-70
2022/05/03 08:57:49;;;;;;;8.88;5.13;;;;;26.00;96208.00;;;;8366043;28;20231;-70
2022/05/03 09:01:52;;;;;;;5.35;4.70;;;;;26.30;96207.00;;;;8368244;28;20227;-74
2022/05/03 09:05:55;;;;;;;4.30;3.90;;;;;26.60;96205.00;;;;8373541;28;20219;-71
2022/05/03 09:10:15;;;;;;;4.15;3.85;;;;;26.60;96210.00;;;;8366432;28;20231;-75
2022/05/03 09:14:36;;;;;;;6.18;3.47;;;;;26.30;96197.00;;;;8368293;28;20220;-74
2022/05/03 09:18:40;;;;;;;4.18;3.85;;;;;25.50;96205.00;;;;8368456;28;20234;-76
2022/05/03 09:27:19;;;;;;;7.05;3.30;;;;;24.60;96198.00;;;;8370877;28;20581;-76
2022/05/03 09:31:32;;;;;;;4.07;3.40;;;;;25.10;96197.00;;;;8376755;28;20242;-73
2022/05/03 09:35:37;;;;;;;4.47;3.22;;;;;25.10;96200.00;;;;8382594;28;20223;-74
2022/05/03 09:39:41;;;;;;;3.88;3.03;;;;;25.10;96201.00;;;;8368531;28;20307;-74
2022/05/03 09:44:04;;;;;;;3.50;3.20;;;;;24.90;96195.00;;;;8382458;28;20235;-73
2022/05/03 09:48:07;;;;;;;4.95;3.67;;;;;25.40;96196.00;;;;8374119;28;20300;-74
2022/05/03 09:52:27;;;;;;;3.75;3.15;;;;;25.70;96203.00;;;;8371310;28;20242;-82
2022/05/03 09:56:35;;;;;;;3.45;3.15;;;;;25.70;96193.00;;;;8374665;28;20223;-74
2022/05/03 10:00:41;;;;;;;3.30;3.10;;;;;26.10;96194.00;;;;8376004;28;20252;-78
2022/05/03 10:04:45;;;;;;;3.83;3.50;;;;;26.50;96191.00;;;;8376091;28;20258;-71
2022/05/03 10:08:51;;;;;;;4.80;4.05;;;;;26.60;96192.00;;;;8381964;28;20224;-71
2022/05/03 10:12:55;;;;;;;3.97;3.65;;;;;27.40;96184.00;;;;8365521;28;20228;-70
2022/05/03 10:21:26;;;;;;;3.38;2.80;;;;;28.60;96184.00;;;;8385672;28;20253;-72
2022/05/03 10:25:30;;;;;;;2.65;2.40;;;;;27.70;96182.00;;;;8375174;28;20327;-73
2022/05/03 10:29:35;;;;;;;2.97;2.78;;;;;27.90;96177.00;;;;8357312;28;20230;-71
2022/05/03 10:33:42;;;;;;;2.88;2.60;;;;;28.30;96175.00;;;;8381604;28;20227;-69
2022/05/03 10:38:06;;;;;;;2.67;2.47;;;;;28.30;96171.00;;;;8382842;28;20227;-71
2022/05/03 10:42:13;;;;;;;3.22;2.92;;;;;29.30;96164.00;;;;8383121;28;20654;-72
2022/05/03 10:46:22;;;;;;;2.78;2.58;;;;;30.20;96166.00;;;;8369837;28;20271;-71
2022/05/03 10:50:34;;;;;;;2.17;2.08;;;;;30.30;96166.00;;;;8381550;28;20255;-72
2022/05/03 10:55:07;;;;;;;2.58;2.47;;;;;29.70;96161.00;;;;8381899;28;20224;-70
2022/05/03 10:59:14;;;;;;;2.78;2.53;;;;;29.50;96162.00;;;;8380886;28;20311;-72
2022/05/03 11:03:21;;;;;;;2.80;2.70;;;;;29.90;96156.00;;;;8384679;28;20248;-72
2022/05/03 11:07:26;;;;;;;4.32;2.80;;;;;30.20;96154.00;;;;8380133;28;20234;-74
2022/05/03 11:12:05;;;;;;;4.07;2.88;;;;;30.10;96151.00;;;;8384761;28;20227;-71
2022/05/03 11:16:35;;;;;;;2.65;2.45;;;;;29.40;96150.00;;;;8378885;28;20318;-71
2022/05/03 11:20:39;;;;;;;3.08;2.88;;;;;29.40;96144.00;;;;8333849;28;20231;-71
2022/05/03 11:24:45;;;;;;;4.07;2.88;;;;;29.40;96143.00;;;;8377203;28;20318;-72
2022/05/03 11:28:50;;;;;;;3.10;2.80;;;;;30.00;96137.00;;;;8378205;28;20255;-71
2022/05/03 11:32:57;;;;;;;4.32;2.90;;;;;29.60;96134.00;;;;8384347;28;20231;-74
2022/05/03 11:37:01;;;;;;;3.28;2.65;;;;;29.40;96126.00;;;;8368346;28;20303;-71
2022/05/03 11:41:07;;;;;;;2.70;2.50;;;;;30.30;96124.00;;;;8373237;28;20782;-72
2022/05/03 11:45:12;;;;;;;2.80;2.13;;;;;30.60;96125.00;;;;8374488;28;20223;-71
2022/05/03 11:49:17;;;;;;;3.40;2.45;;;;;29.80;96117.00;;;;8392302;28;20238;-71
2022/05/03 11:57:42;;;;;;;4.85;2.50;;;;;30.00;96113.00;;;;8372148;28;20291;-71
2022/05/03 12:01:47;;;;;;;2.63;2.50;;;;;30.00;96108.00;;;;8370991;28;20368;-72
2022/05/03 12:05:58;;;;;;;3.55;3.00;;;;;30.30;96106.00;;;;8370219;28;20762;-73
2022/05/03 12:10:02;;;;;;;2.75;2.55;;;;;30.00;96097.00;;;;8367994;28;20231;-72
2022/05/03 12:14:07;;;;;;;4.70;2.78;;;;;29.90;96102.00;;;;8378321;28;20218;-71
2022/05/03 12:18:15;;;;;;;3.20;2.92;;;;;30.10;96104.00;;;;8393884;28;20299;-75
2022/05/03 12:22:19;;;;;;;9.02;3.30;;;;;30.00;96109.00;;;;8380717;28;20344;-74
2022/05/03 12:26:26;;;;;;;3.08;2.88;;;;;28.70;96109.00;;;;8377404;28;20227;-72
2022/05/03 12:30:31;;;;;;;4.18;3.30;;;;;27.50;96100.00;;;;8377181;28;20236;-73
2022/05/03 12:34:34;;;;;;;4.07;3.67;;;;;26.70;96105.00;;;;8379101;28;20306;-72
2022/05/03 12:38:49;;;;;;;5.35;3.40;;;;;25.90;96098.00;;;;8379258;28;20234;-72
2022/05/03 12:42:53;;;;;;;3.50;3.20;;;;;25.60;96095.00;;;;8363422;28;20818;-70
2022/05/03 12:47:06;;;;;;;4.93;3.50;;;;;25.40;96088.00;;;;8374450;28;20223;-74
2022/05/03 12:51:10;;;;;;;6.90;3.58;;;;;25.50;96088.00;;;;8373540;28;20608;-71
2022/05/03 12:55:14;;;;;;;3.75;3.35;;;;;25.50;96086.00;;;;8375201;28;20734;-74
2022/05/03 12:59:18;;;;;;;3.65;3.33;;;;;25.70;96079.00;;;;8371218;28;20216;-71
2022/05/03 13:03:23;;;;;;;3.97;3.50;;;;;25.90;96081.00;;;;8376004;28;20240;-72
2022/05/03 13:07:26;;;;;;;5.43;3.03;;;;;25.90;96082.00;;;;8369164;28;20785;-71
2022/05/03 13:11:29;;;;;;;3.97;3.55;;;;;25.90;96076.00;;;;8379966;28;20769;-71
2022/05/03 13:15:32;;;;;;;3.42;3.13;;;;;25.90;96080.00;;;;8377802;28;20230;-72
2022/05/03 13:19:38;;;;;;;3.40;3.10;;;;;25.90;96075.00;;;;8381440;28;20311;-70
2022/05/03 13:23:42;;;;;;;3.63;3.35;;;;;25.60;96073.00;;;;8368412;28;20222;-75
2022/05/03 13:27:45;;;;;;;3.97;3.53;;;;;25.90;96060.00;;;;8372853;28;20307;-68
2022/05/03 13:31:48;;;;;;;3.50;3.20;;;;;26.90;96062.00;;;;8371130;28;20216;-69
2022/05/03 13:40:33;;;;;;;4.28;2.90;;;;;29.30;96064.00;;;;8339432;28;20232;-71
2022/05/03 13:44:38;;;;;;;5.03;3.05;;;;;30.60;96061.00;;;;8367782;28;20387;-71
2022/05/03 13:48:41;;;;;;;4.18;3.00;;;;;31.60;96058.00;;;;8368556;28;20226;-70
2022/05/03 13:52:46;;;;;;;3.30;3.00;;;;;31.50;96050.00;;;;8364939;28;20232;-74
2022/05/03 13:56:49;;;;;;;3.53;2.83;;;;;31.60;96054.00;;;;8367509;28;20318;-71
2022/05/03 14:00:53;;;;;;;3.42;3.13;;;;;30.80;96061.00;;;;8356532;28;20234;-76
2022/05/03 14:04:56;;;;;;;3.08;2.88;;;;;30.30;96070.00;;;;8365282;28;20230;-74
2022/05/03 14:09:02;;;;;;;4.40;3.08;;;;;30.40;96066.00;;;;8365924;28;20230;-69
2022/05/03 14:13:06;;;;;;;2.90;2.70;;;;;30.00;96063.00;;;;8370802;28;20570;-74
2022/05/03 14:17:09;;;;;;;3.50;3.30;;;;;29.60;96074.00;;;;8369102;28;20230;-72
2022/05/03 14:21:13;;;;;;;3.92;3.17;;;;;28.50;96074.00;;;;8367731;28;20230;-72
2022/05/03 14:25:17;;;;;;;13.55;3.95;;;;;26.90;96067.00;;;;8368831;28;20228;-69
2022/05/03 14:29:21;;;;;;;5.75;3.45;;;;;24.50;96060.00;;;;8368915;28;20266;-67
2022/05/03 14:33:24;;;;;;;7.35;4.05;;;;;21.70;96066.00;;;;8370279;28;20314;-69
2022/05/03 14:37:29;;;;;;;6.22;4.70;;;;;19.60;96075.00;;;;8376051;28;20227;-68
2022/05/03 14:41:33;;;;;;;4.75;4.30;;;;;17.80;96077.00;;;;8380256;28;20861;-67
2022/05/03 14:45:37;;;;;;;4.85;4.40;;;;;16.60;96065.00;;;;8378770;28;20224;-66
2022/05/03 14:49:41;;;;;;;16.42;10.43;;;;;16.20;96068.00;;;;8385592;28;20258;-70
2022/05/03 14:53:47;;;;;;;4.85;4.43;;;;;16.20;96061.00;;;;8379143;28;20231;-66
2022/05/03 15:06:41;;;;;;;7.82;5.82;;;;;15.70;96071.00;;;;8381444;28;20234;-66
2022/05/03 15:10:44;;;;;;;7.22;6.30;;;;;15.80;96075.00;;;;8353041;28;20299;-66
2022/05/03 15:14:48;;;;;;;9.13;6.72;;;;;15.90;96077.00;;;;8374719;28;20681;-67
2022/05/03 15:18:52;;;;;;;6.63;5.85;;;;;16.00;96082.00;;;;8378655;28;20274;-68
2022/05/03 15:27:16;;;;;;;5.70;5.20;;;;;15.50;96075.00;;;;8382844;28;20230;-66
2022/05/03 15:31:21;;;;;;;9.13;5.68;;;;;15.20;96072.00;;;;8382824;28;20239;-71
2022/05/03 15:35:25;;;;;;;10.52;6.10;;;;;15.20;96066.00;;;;8380168;28;20219;-69
2022/05/03 15:39:29;;;;;;;6.60;5.25;;;;;15.00;96050.00;;;;8395017;28;20231;-66
2022/05/03 15:43:34;;;;;;;8.90;5.82;;;;;14.80;96044.00;;;;8381089;28;20686;-67
2022/05/03 15:47:40;;;;;;;8.27;5.15;;;;;14.80;96039.00;;;;8375490;28;20307;-67
2022/05/03 15:51:43;;;;;;;7.45;5.40;;;;;14.80;96052.00;;;;8374725;28;20239;-66
2022/05/03 15:55:47;;;;;;;6.95;5.00;;;;;14.70;96048.00;;;;8382050;28;20208;-72
2022/05/03 15:59:50;;;;;;;5.53;5.03;;;;;14.70;96056.00;;;;8379518;28;20778;-74
2022/05/03 16:03:56;;;;;;;6.38;4.60;;;;;14.70;96080.00;;;;8382889;28;20311;-75
2022/05/03 16:07:59;;;;;;;6.53;5.20;;;;;14.70;96091.00;;;;8385364;28;20293;-75
2022/05/03 16:12:04;;;;;;;6.22;5.25;;;;;14.70;96081.00;;;;8381076;28;20592;-79
2022/05/03 16:16:07;;;;;;;5.75;5.15;;;;;14.70;96084.00;;;;8377740;28;20234;-80
2022/05/03 16:20:12;;;;;;;10.43;6.60;;;;;14.70;96086.00;;;;8374445;28;20231;-82
2022/05/03 16:24:16;;;;;;;7.30;5.50;;;;;14.60;96083.00;;;;8383897;28;20329;-82
2022/05/03 16:28:23;;;;;;;6.75;5.15;;;;;14.60;96085.00;;;;8386065;28;20222;-80
2022/05/03 16:32:26;;;;;;;7.07;5.47;;;;;14.60;96089.00;;;;8375687;28;20235;-81
2022/05/03 16:45:12;;;;;;;11.48;6.78;;;;;14.60;96089.00;;;;8384001;28;20230;-80
2022/05/03 16:49:15;;;;;;;8.05;6.28;;;;;14.70;96092.00;;;;8381416;28;20228;-82
2022/05/03 16:53:20;;;;;;;7.50;5.78;;;;;14.70;96093.00;;;;8379629;28;20265;-79
2022/05/03 16:57:23;;;;;;;7.18;5.97;;;;;14.80;96087.00;;;;8383319;28;20231;-79
2022/05/03 17:01:26;;;;;;;9.70;6.53;;;;;15.00;96096.00;;;;8378287;28;20311;-79
2022/05/03 17:05:30;;;;;;;8.02;6.72;;;;;15.00;96094.00;;;;8377597;28;20236;-78
2022/05/03 17:09:35;;;;;;;9.63;7.60;;;;;15.10;96087.00;;;;8378743;28;20358;-78
2022/05/03 17:13:39;;;;;;;22.38;12.88;;;;;15.20;96088.00;;;;8361063;28;20226;-79
2022/05/03 17:17:42;;;;;;;11.15;8.23;;;;;15.20;96083.00;;;;8371812;28;20220;-79
2022/05/03 17:21:46;;;;;;;7.38;6.60;;;;;15.10;96088.00;;;;8378032;28;20269;-79
2022/05/03 17:25:50;;;;;;;7.85;6.85;;;;;15.10;96090.00;;;;8378306;28;20311;-72
2022/05/03 17:29:54;;;;;;;10.73;6.93;;;;;15.00;96097.00;;;;8393970;28;20955;-71
2022/05/03 17:33:58;;;;;;;7.57;6.70;;;;;14.90;96086.00;;;;8380797;28;20772;-71
2022/05/03 17:38:01;;;;;;;8.20;6.90;;;;;14.80;96080.00;;;;8370616;28;20949;-71
2022/05/03 17:42:07;;;;;;;8.40;6.50;;;;;14.70;96087.00;;;;8373800;28;20231;-79
2022/05/03 17:46:11;;;;;;;10.20;7.60;;;;;14.60;96089.00;;;;8393706;28;21594;-77
2022/05/03 17:50:15;;;;;;;7.55;6.55;;;;;14.60;96099.00;;;;8375056;28;20872;-77
2022/05/03 17:54:18;;;;;;;10.48;7.50;;;;;14.60;96110.00;;;;8368583;28;20250;-72
2022/05/03 17:58:23;;;;;;;10.15;7.78;;;;;14.60;96107.00;;;;8371480;28;20231;-69
2022/05/03 18:02:26;;;;;;;12.35;8.15;;;;;14.50;96109.00;;;;8373212;28;20239;-71
2022/05/03 18:06:30;;;;;;;8.70;7.80;;;;;14.50;96117.00;;;;8373276;28;20234;-70
2022/05/03 18:10:33;;;;;;;10.93;8.02;;;;;14.50;96129.00;;;;8377752;28;20229;-72
2022/05/03 18:14:38;;;;;;;11.65;7.95;;;;;14.40;96132.00;;;;8379948;28;20229;-71
2022/05/03 18:18:41;;;;;;;11.38;8.20;;;;;14.30;96137.00;;;;8379055;28;20270;-73
2022/05/03 18:22:45;;;;;;;7.68;6.90;;;;;14.30;96134.00;;;;8385747;28;20730;-71
2022/05/03 18:26:49;;;;;;;8.95;6.63;;;;;14.30;96132.00;;;;8389834;28;20237;-72
2022/05/03 18:30:53;;;;;;;10.32;6.88;;;;;14.30;96135.00;;;;8377846;28;20246;-72
2022/05/03 18:34:56;;;;;;;10.98;6.97;;;;;14.30;96138.00;;;;8390195;28;20258;-69
2022/05/03 18:39:00;;;;;;;9.15;7.50;;;;;14.40;96132.00;;;;8385107;28;20318;-73
2022/05/03 18:43:04;;;;;;;8.00;6.70;;;;;14.40;96140.00;;;;8389097;28;20956;-69
2022/05/03 18:47:09;;;;;;;8.90;6.65;;;;;14.40;96149.00;;;;8395128;28;20233;-69
2022/05/03 18:51:12;;;;;;;12.05;7.63;;;;;14.40;96153.00;;;;8382986;28;20241;-73
2022/05/03 18:59:37;;;;;;;15.45;7.18;;;;;14.50;96164.00;;;;8376943;28;20383;-75
2022/05/03 19:03:42;;;;;;;11.65;7.72;;;;;14.50;96165.00;;;;8381405;28;20311;-74
2022/05/03 19:07:45;;;;;;;8.98;6.85;;;;;14.40;96170.00;;;;8377247;28;20220;-71
2022/05/03 19:11:49;;;;;;;8.40;6.93;;;;;14.40;96170.00;;;;8375234;28;20242;-71
2022/05/03 19:15:52;;;;;;;10.82;7.10;;;;;14.40;96175.00;;;;8387491;28;20233;-72
2022/05/03 19:19:57;;;;;;;9.77;7.78;;;;;14.50;96178.00;;;;8376367;28;20231;-74
2022/05/03 19:32:53;;;;;;;8.90;6.90;;;;;14.50;96179.00;;;;8366681;28;21906;-72
2022/05/03 19:36:58;;;;;;;9.02;7.18;;;;;14.50;96188.00;;;;8379895;28;20220;-69
2022/05/03 19:41:01;;;;;;;6.88;6.10;;;;;14.60;96190.00;;;;8367329;28;20231;-71
2022/05/03 19:45:06;;;;;;;9.75;6.65;;;;;14.60;96193.00;;;;8372998;28;20235;-72
2022/05/03 19:49:09;;;;;;;8.85;6.53;;;;;14.60;96198.00;;;;8373847;28;20680;-71
2022/05/03 19:53:15;;;;;;;8.10;5.97;;;;;14.70;96200.00;;;;8377220;28;20245;-76
2022/05/03 19:57:18;;;;;;;9.57;6.20;;;;;14.70;96210.00;;;;8379791;28;20247;-71
2022/05/03 20:01:22;;;;;;;8.98;6.43;;;;;14.70;96206.00;;;;8374204;28;20223;-74
2022/05/03 20:05:27;;;;;;;8.48;6.70;;;;;14.70;96206.00;;;;8375590;28;20240;-70
2022/05/03 20:09:31;;;;;;;8.63;7.10;;;;;14.70;96202.00;;;;8367829;28;20235;-72
2022/05/03 20:13:36;;;;;;;8.70;7.43;;;;;14.70;96199.00;;;;8371305;28;20250;-72
2022/05/03 20:17:40;;;;;;;7.20;6.50;;;;;14.70;96196.00;;;;8369724;28;20302;-75
2022/05/03 20:21:45;;;;;;;8.60;7.32;;;;;14.70;96208.00;;;;8359612;28;22170;-73
2022/05/03 20:25:50;;;;;;;9.02;6.78;;;;;14.80;96210.00;;;;8367026;28;21163;-70
2022/05/03 20:29:53;;;;;;;10.38;6.97;;;;;14.80;96204.00;;;;8363797;28;20232;-73
2022/05/03 20:33:56;;;;;;;8.60;7.00;;;;;14.80;96199.00;;;;8373665;28;20926;-72
2022/05/03 20:38:00;;;;;;;9.30;7.40;;;;;14.80;96203.00;;;;8374230;28;20793;-72
2022/05/03 20:42:05;;;;;;;9.30;7.75;;;;;14.70;96204.00;;;;8377810;28;20246;-71
2022/05/03 20:46:08;;;;;;;10.55;7.32;;;;;14.60;96201.00;;;;8371418;28;20223;-71
2022/05/03 20:50:11;;;;;;;7.13;6.15;;;;;14.50;96198.00;;;;8379489;28;20219;-72
2022/05/03 20:54:15;;;;;;;7.88;6.60;;;;;14.40;96188.00;;;;8386587;28;20319;-71
2022/05/03 20:58:20;;;;;;;8.50;7.15;;;;;14.40;96198.00;;;;8395839;28;20717;-72
2022/05/03 21:02:23;;;;;;;8.10;7.07;;;;;14.40;96191.00;;;;8377969;28;20903;-70
2022/05/03 21:06:26;;;;;;;8.02;6.80;;;;;14.30;96181.00;;;;8389066;28;20234;-74
2022/05/03 21:10:29;;;;;;;8.18;7.22;;;;;14.30;96198.00;;;;8383012;28;20246;-72
2022/05/03 21:14:34;;;;;;;8.18;7.05;;;;;14.20;96196.00;;;;8392664;28;20239;-70
2022/05/03 21:18:37;;;;;;;9.20;6.88;;;;;13.90;96204.00;;;;8378052;28;20307;-69
2022/05/03 21:22:40;;;;;;;8.48;6.88;;;;;13.70;96210.00;;;;8375876;28;20239;-70
2022/05/03 21:26:43;;;;;;;10.85;8.05;;;;;13.60;96208.00;;;;8378963;28;20689;-70
2022/05/03 21:30:48;;;;;;;15.65;8.43;;;;;13.50;96216.00;;;;8399084;28;20231;-69